Time;durP1;ratioP1;P1;durP2;ratioP2;P2;SDS_P1;SDS_P2;PMS_P1;PMS_P2;Temp;Humidity;BMP_temperature;BMP_pressure;BME280_temperature;BME280_humidity;BME280_pressure;Samples;Min_cycle;Max_cycle;Signal;HPM_P1;HPM_P2
2023/12/13 00:02:02;;;;;;;5.80;4.93;;;;;;;;;;5011209;28;20450;-57
2023/12/13 00:04:29;;;;;;;5.97;5.13;;;;;;;;;;5010998;28;20457;-60
2023/12/13 00:06:56;;;;;;;7.43;4.63;;;;;;;;;;5011226;28;20462;-57
2023/12/13 00:09:24;;;;;;;7.00;5.20;;;;;;;;;;5010433;28;20469;-58
2023/12/13 00:11:51;;;;;;;6.93;5.37;;;;;;;;;;5010848;28;20458;-57
2023/12/13 00:14:19;;;;;;;7.57;5.27;;;;;;;;;;5010917;28;20475;-57
2023/12/13 00:16:47;;;;;;;6.90;5.70;;;;;;;;;;5010839;28;20528;-57
2023/12/13 00:19:15;;;;;;;8.17;5.47;;;;;;;;;;5010700;28;20543;-59
2023/12/13 00:21:43;;;;;;;6.60;4.93;;;;;;;;;;5011197;28;20457;-57
2023/12/13 00:24:12;;;;;;;4.20;3.27;;;;;;;;;;5010400;28;20468;-57
2023/12/13 00:26:40;;;;;;;4.10;3.57;;;;;;;;;;5010914;28;20917;-58
2023/12/13 00:29:08;;;;;;;5.20;4.00;;;;;;;;;;5010322;28;20878;-57
2023/12/13 00:31:35;;;;;;;3.70;2.90;;;;;;;;;;5010741;28;20539;-58
2023/12/13 00:34:03;;;;;;;4.70;2.93;;;;;;;;;;5010584;28;20445;-59
2023/12/13 00:36:31;;;;;;;5.10;3.50;;;;;;;;;;5010420;28;20982;-58
2023/12/13 00:38:59;;;;;;;7.80;4.93;;;;;;;;;;5010254;28;20834;-60
2023/12/13 00:41:26;;;;;;;8.63;4.50;;;;;;;;;;5010732;28;20792;-58
2023/12/13 00:43:53;;;;;;;5.83;3.70;;;;;;;;;;5010786;28;20526;-59
2023/12/13 00:46:22;;;;;;;4.30;3.73;;;;;;;;;;5014459;28;20455;-58
2023/12/13 00:48:50;;;;;;;6.00;4.00;;;;;;;;;;5014196;28;20810;-57
2023/12/13 00:51:17;;;;;;;9.87;5.17;;;;;;;;;;5014830;28;20439;-58
2023/12/13 00:53:46;;;;;;;19.87;6.20;;;;;;;;;;5014474;28;20540;-57
2023/12/13 00:56:14;;;;;;;12.30;7.10;;;;;;;;;;5014229;28;20496;-60
2023/12/13 00:58:42;;;;;;;6.70;5.23;;;;;;;;;;5013655;28;20494;-57
2023/12/13 01:01:10;;;;;;;6.10;5.50;;;;;;;;;;5014469;28;20449;-57
2023/12/13 01:03:37;;;;;;;6.47;4.90;;;;;;;;;;5014240;28;20450;-57
2023/12/13 01:06:09;;;;;;;8.10;5.57;;;;;;;;;;5013976;28;20457;-59
2023/12/13 01:08:36;;;;;;;6.87;5.47;;;;;;;;;;5013945;28;20497;-62
2023/12/13 01:11:07;;;;;;;6.90;5.90;;;;;;;;;;5014025;28;20450;-57
2023/12/13 01:13:35;;;;;;;7.17;6.47;;;;;;;;;;5014315;28;20979;-58
2023/12/13 01:16:02;;;;;;;9.43;8.40;;;;;;;;;;5013966;28;20936;-57
2023/12/13 01:18:29;;;;;;;10.50;8.37;;;;;;;;;;5013546;28;20488;-57
2023/12/13 01:20:56;;;;;;;9.90;7.63;;;;;;;;;;5013801;28;20854;-57
2023/12/13 01:23:24;;;;;;;9.83;7.00;;;;;;;;;;5013614;28;20457;-58
2023/12/13 01:25:51;;;;;;;6.30;5.17;;;;;;;;;;5014007;28;20520;-58
2023/12/13 01:28:20;;;;;;;3.30;2.40;;;;;;;;;;5013854;28;20469;-57
2023/12/13 01:30:48;;;;;;;3.47;2.60;;;;;;;;;;5013511;28;20454;-57
2023/12/13 01:33:15;;;;;;;4.80;2.47;;;;;;;;;;5013598;28;20512;-57
2023/12/13 01:35:42;;;;;;;8.40;5.73;;;;;;;;;;5013678;28;20446;-57
2023/12/13 01:38:10;;;;;;;12.20;9.03;;;;;;;;;;5013551;28;20500;-58
2023/12/13 01:40:37;;;;;;;11.83;7.63;;;;;;;;;;5013558;28;20457;-57
2023/12/13 01:43:04;;;;;;;6.17;5.03;;;;;;;;;;5013718;28;20451;-58
2023/12/13 01:45:33;;;;;;;2.87;2.33;;;;;;;;;;5013467;28;20458;-58
2023/12/13 01:48:00;;;;;;;2.40;1.77;;;;;;;;;;5013006;28;20470;-58
2023/12/13 01:50:29;;;;;;;3.00;1.20;;;;;;;;;;5013269;28;20945;-61
2023/12/13 01:52:56;;;;;;;1.67;1.00;;;;;;;;;;5018433;28;20492;-60
2023/12/13 01:55:23;;;;;;;2.87;1.83;;;;;;;;;;5025330;28;20454;-58
2023/12/13 01:57:51;;;;;;;2.17;1.63;;;;;;;;;;5055305;22;20524;-87
2023/12/13 02:00:19;;;;;;;2.40;1.73;;;;;;;;;;5035940;28;20453;-86
2023/12/13 02:02:48;;;;;;;2.50;1.70;;;;;;;;;;5036310;28;20469;-86
2023/12/13 02:05:17;;;;;;;3.17;2.07;;;;;;;;;;5033715;28;20453;-87
2023/12/13 02:07:44;;;;;;;3.47;2.80;;;;;;;;;;5023793;28;20465;-86
2023/12/13 02:10:12;;;;;;;3.13;2.83;;;;;;;;;;5060436;22;21029;-53
2023/12/13 02:12:39;;;;;;;3.40;2.27;;;;;;;;;;5012940;28;20516;-53
2023/12/13 02:15:07;;;;;;;5.30;2.33;;;;;;;;;;5013332;28;20541;-53
2023/12/13 02:17:34;;;;;;;3.30;2.10;;;;;;;;;;5006603;28;20490;-54
2023/12/13 02:20:03;;;;;;;2.53;2.20;;;;;;;;;;5000802;28;20545;-54
2023/12/13 02:22:32;;;;;;;3.10;2.13;;;;;;;;;;5012525;28;20450;-54
2023/12/13 02:25:00;;;;;;;3.37;2.20;;;;;;;;;;5012717;28;20450;-55
2023/12/13 02:27:29;;;;;;;3.10;2.80;;;;;;;;;;5012271;28;20467;-55
2023/12/13 02:29:57;;;;;;;2.77;1.90;;;;;;;;;;5012308;28;20451;-54
2023/12/13 02:32:24;;;;;;;2.73;1.73;;;;;;;;;;5011909;28;20457;-55
2023/12/13 02:34:51;;;;;;;2.60;1.90;;;;;;;;;;5012063;28;20830;-56
2023/12/13 02:37:19;;;;;;;2.60;1.80;;;;;;;;;;5010197;28;20466;-56
2023/12/13 02:39:48;;;;;;;2.40;1.30;;;;;;;;;;5011944;28;20478;-57
2023/12/13 02:42:15;;;;;;;2.53;1.80;;;;;;;;;;5009361;28;20988;-56
2023/12/13 02:44:43;;;;;;;2.20;1.40;;;;;;;;;;5012344;28;20457;-56
2023/12/13 02:47:10;;;;;;;4.00;1.70;;;;;;;;;;5009538;28;20529;-54
2023/12/13 02:52:12;;;;;;;3.20;2.40;;;;;;;;;;5088275;27;21103;-55
2023/12/13 02:54:39;;;;;;;2.90;2.30;;;;;;;;;;5082043;28;20949;-54
2023/12/13 02:57:06;;;;;;;2.77;2.20;;;;;;;;;;5087598;28;20489;-53
2023/12/13 02:59:33;;;;;;;2.93;1.90;;;;;;;;;;5081643;28;20937;-53
2023/12/13 03:02:01;;;;;;;3.03;1.87;;;;;;;;;;5088177;28;20870;-53
2023/12/13 03:04:28;;;;;;;2.50;2.10;;;;;;;;;;5087825;28;20477;-53
2023/12/13 03:06:55;;;;;;;3.60;2.33;;;;;;;;;;5088005;28;20442;-54
2023/12/13 03:09:24;;;;;;;3.30;2.07;;;;;;;;;;5080136;28;20474;-53
2023/12/13 03:11:51;;;;;;;2.40;1.80;;;;;;;;;;5087857;28;20443;-55
2023/12/13 03:14:19;;;;;;;2.40;1.57;;;;;;;;;;5080813;28;20451;-53
2023/12/13 03:16:46;;;;;;;2.60;1.50;;;;;;;;;;5087984;28;20902;-53
2023/12/13 03:19:13;;;;;;;2.03;1.30;;;;;;;;;;5080532;28;20451;-52
2023/12/13 03:21:41;;;;;;;2.30;1.60;;;;;;;;;;5087774;28;20897;-53
2023/12/13 03:26:41;;;;;;;3.50;1.80;;;;;;;;;;5088138;27;20565;-53
2023/12/13 03:29:09;;;;;;;3.47;1.33;;;;;;;;;;5067677;28;20468;-54
2023/12/13 03:31:36;;;;;;;4.17;1.77;;;;;;;;;;5067843;28;20518;-53
2023/12/13 03:34:03;;;;;;;2.90;1.53;;;;;;;;;;5067388;28;20444;-52
2023/12/13 03:36:31;;;;;;;2.90;1.40;;;;;;;;;;5067671;28;20491;-53
2023/12/13 03:38:58;;;;;;;2.63;1.43;;;;;;;;;;5067535;28;20562;-52
2023/12/13 03:41:26;;;;;;;3.97;2.40;;;;;;;;;;5068042;28;20448;-53
2023/12/13 03:43:54;;;;;;;5.03;2.87;;;;;;;;;;5067570;28;20954;-53
2023/12/13 03:46:23;;;;;;;3.17;2.00;;;;;;;;;;5067474;28;20919;-53
2023/12/13 03:48:50;;;;;;;4.23;2.43;;;;;;;;;;5067148;28;20529;-53
2023/12/13 03:51:18;;;;;;;3.00;2.20;;;;;;;;;;5067240;28;20509;-53
2023/12/13 03:53:45;;;;;;;3.03;1.90;;;;;;;;;;5067032;28;20863;-53
2023/12/13 03:56:14;;;;;;;2.37;1.93;;;;;;;;;;5067306;28;20647;-54
2023/12/13 03:58:42;;;;;;;2.87;1.83;;;;;;;;;;5066896;28;20469;-54
2023/12/13 04:01:11;;;;;;;3.57;3.03;;;;;;;;;;5067431;28;20455;-53
2023/12/13 04:03:38;;;;;;;2.70;2.10;;;;;;;;;;5067254;28;20529;-53
2023/12/13 04:06:05;;;;;;;2.50;1.60;;;;;;;;;;5067042;28;20446;-53
2023/12/13 04:08:33;;;;;;;2.77;1.77;;;;;;;;;;5066948;28;21001;-53
2023/12/13 04:11:00;;;;;;;2.73;2.07;;;;;;;;;;5067267;28;20450;-54
2023/12/13 04:13:27;;;;;;;2.70;1.90;;;;;;;;;;5066645;28;20504;-53
2023/12/13 04:15:55;;;;;;;2.27;1.83;;;;;;;;;;5066837;28;20528;-54
2023/12/13 04:18:23;;;;;;;2.93;2.10;;;;;;;;;;5066424;28;20480;-52
2023/12/13 04:20:51;;;;;;;3.50;3.00;;;;;;;;;;5066590;28;21003;-54
2023/12/13 04:23:18;;;;;;;3.43;3.13;;;;;;;;;;5067108;28;20457;-53
2023/12/13 04:25:45;;;;;;;5.23;3.37;;;;;;;;;;5066624;28;20994;-53
2023/12/13 04:28:13;;;;;;;5.00;4.07;;;;;;;;;;5066318;28;20476;-53
2023/12/13 04:30:41;;;;;;;5.40;3.67;;;;;;;;;;5066303;28;20447;-52
2023/12/13 04:33:08;;;;;;;4.57;4.17;;;;;;;;;;5066286;28;20454;-53
2023/12/13 04:35:37;;;;;;;4.93;3.90;;;;;;;;;;5066777;28;20487;-55
2023/12/13 04:38:04;;;;;;;4.10;3.67;;;;;;;;;;5052807;28;20526;-52
2023/12/13 04:40:32;;;;;;;5.10;4.23;;;;;;;;;;5053005;28;20448;-53
2023/12/13 04:43:00;;;;;;;4.13;3.60;;;;;;;;;;5053261;28;20452;-53
2023/12/13 04:45:27;;;;;;;4.03;3.30;;;;;;;;;;5053396;28;20607;-53
2023/12/13 04:47:55;;;;;;;4.60;3.93;;;;;;;;;;5052877;28;20467;-52
2023/12/13 04:52:56;;;;;;;4.63;3.80;;;;;;;;;;5088127;27;20644;-53
2023/12/13 04:55:23;;;;;;;4.93;3.60;;;;;;;;;;5088003;28;20462;-53
2023/12/13 04:57:51;;;;;;;4.10;3.70;;;;;;;;;;5081190;28;20491;-53
2023/12/13 05:00:18;;;;;;;5.10;3.50;;;;;;;;;;5086502;28;20450;-54
2023/12/13 05:05:21;;;;;;;5.70;3.70;;;;;;;;;;5108532;27;20605;-53
2023/12/13 05:07:48;;;;;;;3.90;3.10;;;;;;;;;;5098790;28;20641;-53
2023/12/13 05:10:16;;;;;;;4.23;2.93;;;;;;;;;;5087471;28;20485;-54
2023/12/13 05:12:43;;;;;;;3.40;3.10;;;;;;;;;;5088256;28;20471;-54
2023/12/13 05:15:10;;;;;;;3.90;3.40;;;;;;;;;;5087794;28;20506;-52
2023/12/13 05:17:38;;;;;;;4.67;4.00;;;;;;;;;;5088068;28;20462;-53
2023/12/13 05:20:06;;;;;;;5.30;4.20;;;;;;;;;;5087262;28;20450;-53
2023/12/13 05:22:35;;;;;;;3.50;3.20;;;;;;;;;;5087907;28;20442;-54
2023/12/13 05:25:02;;;;;;;4.33;3.93;;;;;;;;;;5087502;28;20443;-54
2023/12/13 05:27:30;;;;;;;3.87;3.50;;;;;;;;;;5079795;28;20558;-53
2023/12/13 05:29:57;;;;;;;3.77;3.47;;;;;;;;;;5087316;28;20446;-53
2023/12/13 05:32:24;;;;;;;4.57;3.70;;;;;;;;;;5087197;28;21119;-55
2023/12/13 05:34:52;;;;;;;3.90;3.50;;;;;;;;;;5087535;28;20478;-53
2023/12/13 05:37:19;;;;;;;4.30;3.73;;;;;;;;;;5087682;28;20474;-55
2023/12/13 05:39:48;;;;;;;4.60;3.33;;;;;;;;;;5087091;28;20443;-55
2023/12/13 05:42:15;;;;;;;4.40;3.77;;;;;;;;;;5087772;28;20545;-54
2023/12/13 05:44:43;;;;;;;4.40;4.00;;;;;;;;;;5087012;28;20948;-53
2023/12/13 05:47:10;;;;;;;5.30;4.10;;;;;;;;;;5086625;28;20466;-53
2023/12/13 05:49:37;;;;;;;3.70;3.17;;;;;;;;;;5086859;28;20504;-54
2023/12/13 05:52:06;;;;;;;4.40;3.80;;;;;;;;;;5087041;28;20449;-55
2023/12/13 05:54:34;;;;;;;5.70;4.43;;;;;;;;;;5087328;28;20561;-54
2023/12/13 05:57:02;;;;;;;4.47;4.03;;;;;;;;;;5086796;28;20503;-54
2023/12/13 05:59:31;;;;;;;6.23;4.43;;;;;;;;;;5078695;28;20973;-53
2023/12/13 06:01:58;;;;;;;4.93;4.53;;;;;;;;;;5085694;28;20880;-55
2023/12/13 06:04:25;;;;;;;6.27;4.90;;;;;;;;;;5086715;28;20458;-55
2023/12/13 06:06:52;;;;;;;5.07;4.60;;;;;;;;;;5086843;28;20869;-53
2023/12/13 06:09:20;;;;;;;5.00;4.50;;;;;;;;;;5086970;28;20453;-54
2023/12/13 06:11:48;;;;;;;6.03;3.80;;;;;;;;;;5087430;28;20545;-55
2023/12/13 06:14:17;;;;;;;4.17;3.07;;;;;;;;;;5086927;28;20531;-55
2023/12/13 06:16:44;;;;;;;4.57;4.17;;;;;;;;;;5073126;28;20443;-52
2023/12/13 06:19:12;;;;;;;4.57;3.93;;;;;;;;;;5072188;28;20949;-54
2023/12/13 06:21:39;;;;;;;7.80;5.20;;;;;;;;;;5072389;28;20464;-53
2023/12/13 06:24:06;;;;;;;5.00;4.03;;;;;;;;;;5072923;28;20505;-54
2023/12/13 06:26:34;;;;;;;6.20;4.67;;;;;;;;;;5069996;28;20452;-54
2023/12/13 06:29:01;;;;;;;5.73;4.40;;;;;;;;;;5072704;28;20465;-54
2023/12/13 06:31:30;;;;;;;5.50;4.20;;;;;;;;;;5072887;28;20833;-54
2023/12/13 06:33:57;;;;;;;5.57;4.97;;;;;;;;;;5073350;28;20480;-53
2023/12/13 06:36:24;;;;;;;5.43;4.10;;;;;;;;;;5072418;28;20458;-53
2023/12/13 06:38:52;;;;;;;6.83;5.63;;;;;;;;;;5072612;28;20463;-53
2023/12/13 06:41:19;;;;;;;8.10;6.10;;;;;;;;;;5072808;28;20447;-53
2023/12/13 06:43:47;;;;;;;7.70;6.90;;;;;;;;;;5071583;28;20451;-54
2023/12/13 06:46:14;;;;;;;6.67;6.00;;;;;;;;;;5071665;28;20466;-55
2023/12/13 06:51:17;;;;;;;6.20;5.60;;;;;;;;;;5148599;27;20973;-51
2023/12/13 06:53:46;;;;;;;6.00;5.40;;;;;;;;;;5149678;27;20972;-51
2023/12/13 06:56:13;;;;;;;9.03;7.53;;;;;;;;;;5144227;27;20496;-51
2023/12/13 06:58:41;;;;;;;6.83;6.13;;;;;;;;;;5165239;27;20965;-53
2023/12/13 07:01:08;;;;;;;6.90;6.20;;;;;;;;;;5169812;27;20482;-53
2023/12/13 07:03:35;;;;;;;6.77;6.07;;;;;;;;;;5170462;27;20442;-53
2023/12/13 07:06:05;;;;;;;7.07;6.37;;;;;;;;;;5170329;27;20443;-55
2023/12/13 07:08:34;;;;;;;6.73;5.40;;;;;;;;;;5170277;27;20462;-53
2023/12/13 07:11:03;;;;;;;8.10;5.70;;;;;;;;;;5161456;27;20446;-52
2023/12/13 07:13:30;;;;;;;7.50;6.40;;;;;;;;;;5170032;27;20443;-54
2023/12/13 07:15:58;;;;;;;6.40;5.80;;;;;;;;;;5169874;27;20889;-54
2023/12/13 07:18:26;;;;;;;9.40;7.63;;;;;;;;;;5169585;27;20463;-52
2023/12/13 07:20:53;;;;;;;9.23;7.37;;;;;;;;;;5170087;27;21012;-53
2023/12/13 07:23:20;;;;;;;7.57;6.77;;;;;;;;;;5169797;27;20443;-52
2023/12/13 07:25:49;;;;;;;8.33;7.50;;;;;;;;;;5170209;27;20450;-52
2023/12/13 07:28:16;;;;;;;10.33;9.23;;;;;;;;;;5169457;27;20467;-52
2023/12/13 07:30:44;;;;;;;10.00;8.60;;;;;;;;;;5169535;27;20444;-52
2023/12/13 07:33:11;;;;;;;11.07;8.27;;;;;;;;;;5169670;27;20450;-53
2023/12/13 07:35:39;;;;;;;11.73;9.53;;;;;;;;;;5169789;27;20449;-51
2023/12/13 07:38:06;;;;;;;12.03;7.47;;;;;;;;;;5166605;27;20502;-51
2023/12/13 07:40:33;;;;;;;9.53;7.57;;;;;;;;;;5166805;27;20475;-52
2023/12/13 07:43:02;;;;;;;8.93;7.93;;;;;;;;;;5167073;27;20451;-52
2023/12/13 07:45:29;;;;;;;10.40;9.30;;;;;;;;;;5169310;27;20507;-52
2023/12/13 07:47:56;;;;;;;13.33;11.63;;;;;;;;;;5150889;27;20460;-52
2023/12/13 07:50:25;;;;;;;14.50;11.90;;;;;;;;;;5162626;27;20438;-52
2023/12/13 07:52:52;;;;;;;15.53;12.40;;;;;;;;;;5165847;27;20481;-54
2023/12/13 07:55:19;;;;;;;17.73;13.00;;;;;;;;;;5167741;27;20443;-52
2023/12/13 07:57:47;;;;;;;22.50;16.80;;;;;;;;;;5191099;22;20479;-53
2023/12/13 08:00:16;;;;;;;24.93;17.80;;;;;;;;;;5088647;28;20478;-53
